createdAt,value
2022-11-17T00:02:23.657Z,10.67
2022-11-17T00:04:50.242Z,10.66
2022-11-17T00:07:16.892Z,10.63
2022-11-17T00:09:43.585Z,10.47
2022-11-17T00:12:10.094Z,10.64
2022-11-17T00:14:38.468Z,10.73
2022-11-17T00:17:07.015Z,10.70
2022-11-17T00:19:33.749Z,10.73
2022-11-17T00:22:00.335Z,10.64
2022-11-17T00:24:27.148Z,10.67
2022-11-17T00:26:53.637Z,10.71
2022-11-17T00:29:20.339Z,10.69
2022-11-17T00:31:48.203Z,10.75
2022-11-17T00:34:17.679Z,10.75
2022-11-17T00:36:46.007Z,10.70
2022-11-17T00:39:13.894Z,10.78
2022-11-17T00:41:40.892Z,10.74
2022-11-17T00:44:08.391Z,10.64
2022-11-17T00:46:36.015Z,10.82
2022-11-17T00:49:04.661Z,10.85
2022-11-17T00:51:31.563Z,10.75
2022-11-17T00:53:58.085Z,10.86
2022-11-17T00:56:24.937Z,10.88
2022-11-17T00:58:51.964Z,10.75
2022-11-17T01:01:18.983Z,10.91
2022-11-17T01:03:45.778Z,10.93
2022-11-17T01:06:16.540Z,10.92
2022-11-17T01:08:43.357Z,10.76
2022-11-17T01:11:11.858Z,10.97
2022-11-17T01:13:40.146Z,10.97
2022-11-17T01:16:08.603Z,11.00
2022-11-17T01:18:35.914Z,10.94
2022-11-17T01:21:08.013Z,10.30
2022-11-17T01:23:37.358Z,10.90
2022-11-17T01:26:05.714Z,10.87
2022-11-17T01:28:32.535Z,10.86
2022-11-17T01:31:00.531Z,10.85
2022-11-17T01:33:27.082Z,10.84
2022-11-17T01:35:53.585Z,10.82
2022-11-17T01:38:20.176Z,10.81
2022-11-17T01:40:48.021Z,10.77
2022-11-17T01:43:14.527Z,10.74
2022-11-17T01:45:41.286Z,10.74
2022-11-17T01:48:09.660Z,10.73
2022-11-17T01:50:38.657Z,10.77
2022-11-17T01:53:08.996Z,10.72
2022-11-17T01:55:38.549Z,10.70
2022-11-17T01:58:10.503Z,10.67
2022-11-17T02:00:37.173Z,10.57
2022-11-17T02:03:04.591Z,10.48
2022-11-17T02:05:39.465Z,10.49
2022-11-17T02:08:06.784Z,10.63
2022-11-17T02:10:35.194Z,10.46
2022-11-17T02:13:02.247Z,10.66
2022-11-17T02:15:30.186Z,10.60
2022-11-17T02:17:58.080Z,10.56
2022-11-17T02:20:37.851Z,10.55
2022-11-17T02:23:39.552Z,10.59
2022-11-17T02:26:20.869Z,10.41
2022-11-17T02:28:57.426Z,10.50
2022-11-17T02:31:42.319Z,10.50
2022-11-17T02:34:18.760Z,10.45
2022-11-17T02:37:22.647Z,10.46
2022-11-17T02:39:56.207Z,10.44
2022-11-17T02:42:30.493Z,10.41
2022-11-17T02:45:02.423Z,10.48
2022-11-17T02:47:32.811Z,10.31
2022-11-17T02:50:01.772Z,10.48
2022-11-17T02:52:29.933Z,10.44
2022-11-17T02:54:59.561Z,10.34
2022-11-17T02:57:29.944Z,10.44
2022-11-17T03:00:01.324Z,10.36
2022-11-17T03:02:49.917Z,10.36
2022-11-17T03:05:22.879Z,10.11
2022-11-17T03:08:06.860Z,10.33
2022-11-17T03:10:45.169Z,10.41
2022-11-17T03:13:18.805Z,10.39
2022-11-17T03:15:53.760Z,10.46
2022-11-17T03:18:27.593Z,10.39
2022-11-17T03:21:05.162Z,10.26
2022-11-17T03:23:38.358Z,10.46
2022-11-17T03:26:10.951Z,10.45
2022-11-17T03:28:39.181Z,10.49
2022-11-17T03:31:07.954Z,10.44
2022-11-17T03:33:37.313Z,10.34
2022-11-17T03:36:06.896Z,10.42
2022-11-17T03:38:37.600Z,10.36
2022-11-17T03:41:07.090Z,10.40
2022-11-17T03:43:34.393Z,10.34
2022-11-17T03:46:05.681Z,10.15
2022-11-17T03:48:37.819Z,10.37
2022-11-17T03:51:08.104Z,10.24
2022-11-17T03:53:36.052Z,10.35
2022-11-17T03:56:11.411Z,10.36
2022-11-17T03:58:46.445Z,10.32
2022-11-17T04:01:14.608Z,10.49
2022-11-17T04:03:42.519Z,10.54
2022-11-17T04:06:09.120Z,10.40
2022-11-17T04:08:35.703Z,10.58
2022-11-17T04:11:02.266Z,10.50
2022-11-17T04:13:28.778Z,10.51
2022-11-17T04:15:55.711Z,10.45
2022-11-17T04:18:23.135Z,10.36
2022-11-17T04:20:52.936Z,10.48
2022-11-17T04:23:20.015Z,10.48
2022-11-17T04:25:48.151Z,10.42
2022-11-17T04:28:14.808Z,10.14
2022-11-17T04:30:41.390Z,10.27
2022-11-17T04:33:07.871Z,10.21
2022-11-17T04:35:34.495Z,10.12
2022-11-17T04:38:02.507Z,10.06
2022-11-17T04:40:29.045Z,10.11
2022-11-17T04:42:55.536Z,10.05
2022-11-17T04:45:22.048Z,10.17
2022-11-17T04:47:48.527Z,10.19
2022-11-17T04:50:15.665Z,10.35
2022-11-17T04:52:42.176Z,10.34
2022-11-17T04:55:10.261Z,10.38
2022-11-17T04:57:36.769Z,10.51
2022-11-17T05:00:04.021Z,10.09
2022-11-17T05:02:30.555Z,10.40
2022-11-17T05:04:57.110Z,10.31
2022-11-17T05:07:23.683Z,10.24
2022-11-17T05:09:50.188Z,10.00
2022-11-17T05:12:18.032Z,10.26
2022-11-17T05:14:45.245Z,10.11
2022-11-17T05:17:12.102Z,10.33
2022-11-17T05:19:39.916Z,10.47
2022-11-17T05:22:07.696Z,10.53
2022-11-17T05:24:34.175Z,10.52
2022-11-17T05:27:00.683Z,10.34
2022-11-17T05:29:28.570Z,10.49
2022-11-17T05:31:55.092Z,10.48
2022-11-17T05:34:21.618Z,10.67
2022-11-17T05:36:48.132Z,10.67
2022-11-17T05:39:14.690Z,10.17
2022-11-17T05:41:41.225Z,10.59
2022-11-17T05:44:07.764Z,10.64
2022-11-17T05:46:35.722Z,10.69
2022-11-17T05:49:02.584Z,10.73
2022-11-17T05:51:29.263Z,10.74
2022-11-17T05:53:55.780Z,10.79
2022-11-17T05:56:33.817Z,10.75
2022-11-17T05:59:06.556Z,10.73
2022-11-17T06:01:36.552Z,10.49
2022-11-17T06:04:05.338Z,10.84
2022-11-17T06:06:34.703Z,10.77
2022-11-17T06:09:01.298Z,10.76
2022-11-17T06:11:27.801Z,10.78
2022-11-17T06:13:54.312Z,10.87
2022-11-17T06:16:26.030Z,10.93
2022-11-17T06:18:56.552Z,10.82
2022-11-17T06:21:23.127Z,10.88
2022-11-17T06:23:50.385Z,10.91
2022-11-17T06:26:17.059Z,10.90
2022-11-17T06:28:46.467Z,10.74
2022-11-17T06:31:14.144Z,10.94
2022-11-17T06:33:41.006Z,10.82
2022-11-17T06:36:09.574Z,10.92
2022-11-17T06:38:36.223Z,10.96
2022-11-17T06:41:07.402Z,10.96
2022-11-17T06:43:37.466Z,10.92
2022-11-17T06:46:04.983Z,10.92
2022-11-17T06:48:32.187Z,10.80
2022-11-17T06:50:58.770Z,10.92
2022-11-17T06:53:26.705Z,11.01
2022-11-17T06:55:53.714Z,10.99
2022-11-17T06:58:20.305Z,10.94
2022-11-17T07:00:46.863Z,10.83
2022-11-17T07:03:13.478Z,10.84
2022-11-17T07:05:40.542Z,10.81
2022-11-17T07:08:08.803Z,10.78
2022-11-17T07:10:38.090Z,10.81
2022-11-17T07:13:04.707Z,10.46
2022-11-17T07:15:31.733Z,10.69
2022-11-17T07:17:58.319Z,10.55
2022-11-17T07:20:24.960Z,10.63
2022-11-17T07:22:51.508Z,10.68
2022-11-17T07:25:22.292Z,10.63
2022-11-17T07:27:57.439Z,10.65
2022-11-17T07:30:24.015Z,10.79
2022-11-17T07:32:54.488Z,10.84
2022-11-17T07:35:21.494Z,10.81
2022-11-17T07:37:47.987Z,10.83
2022-11-17T07:40:15.222Z,10.91
2022-11-17T07:42:41.743Z,10.83
2022-11-17T07:45:10.333Z,10.83
2022-11-17T07:47:36.828Z,10.84
2022-11-17T07:50:03.645Z,10.83
2022-11-17T07:52:31.068Z,10.84
2022-11-17T07:54:57.630Z,10.85
2022-11-17T07:57:24.258Z,10.83
2022-11-17T07:59:50.854Z,10.85
2022-11-17T08:02:18.714Z,10.66
2022-11-17T08:04:45.352Z,10.83
2022-11-17T08:07:11.895Z,10.80
2022-11-17T08:09:38.555Z,10.84
2022-11-17T08:12:05.480Z,10.73
2022-11-17T08:14:32.115Z,10.63
2022-11-17T08:16:58.610Z,10.82
2022-11-17T08:19:26.546Z,10.83
2022-11-17T08:21:53.312Z,10.44
2022-11-17T08:24:19.891Z,10.77
2022-11-17T08:26:46.398Z,10.82
2022-11-17T08:29:12.993Z,10.88
2022-11-17T08:31:39.642Z,10.89
2022-11-17T08:34:06.278Z,10.94
2022-11-17T08:36:34.121Z,10.98
2022-11-17T08:39:00.898Z,11.00
2022-11-17T08:41:27.469Z,10.78
2022-11-17T08:43:54.081Z,11.04
2022-11-17T08:46:20.658Z,11.07
2022-11-17T08:48:48.959Z,10.94
2022-11-17T08:51:18.928Z,11.11
2022-11-17T08:53:46.788Z,11.15
2022-11-17T08:56:13.448Z,11.20
2022-11-17T08:58:40.119Z,11.03
2022-11-17T09:01:08.135Z,11.31
2022-11-17T09:03:34.664Z,11.38
2022-11-17T09:06:01.310Z,11.44
2022-11-17T09:08:45.104Z,11.52
2022-11-17T09:11:15.306Z,11.46
2022-11-17T09:13:42.029Z,11.62
2022-11-17T09:16:10.808Z,11.68
2022-11-17T09:18:38.794Z,11.74
2022-11-17T09:21:08.075Z,11.79
2022-11-17T09:23:35.225Z,11.72
2022-11-17T09:26:05.381Z,11.74
2022-11-17T09:28:33.459Z,11.70
2022-11-17T09:31:06.181Z,11.75
2022-11-17T09:33:32.763Z,11.87
2022-11-17T09:35:59.302Z,11.90
2022-11-17T09:38:25.908Z,11.84
2022-11-17T09:40:52.512Z,11.72
2022-11-17T09:43:26.899Z,11.82
2022-11-17T09:46:04.480Z,11.75
2022-11-17T09:48:51.214Z,11.57
2022-11-17T09:51:21.816Z,11.85
2022-11-17T09:53:54.004Z,11.90
2022-11-17T09:56:21.524Z,11.92
2022-11-17T09:58:53.380Z,11.94
2022-11-17T10:01:23.055Z,12.02
2022-11-17T10:03:50.885Z,12.12
2022-11-17T10:06:19.892Z,12.12
2022-11-17T10:08:54.598Z,12.00
2022-11-17T10:11:21.192Z,11.97
2022-11-17T10:13:47.896Z,11.98
2022-11-17T10:16:14.518Z,11.32
2022-11-17T10:18:42.368Z,11.98
2022-11-17T10:21:09.030Z,12.00
2022-11-17T10:23:44.390Z,12.06
2022-11-17T10:26:15.806Z,12.03
2022-11-17T10:28:42.719Z,12.15
2022-11-17T10:31:12.912Z,12.18
2022-11-17T10:33:43.506Z,12.31
2022-11-17T10:36:18.711Z,12.40
2022-11-17T10:38:46.649Z,12.31
2022-11-17T10:41:16.625Z,12.46
2022-11-17T10:43:55.714Z,12.41
2022-11-17T10:46:22.340Z,12.56
2022-11-17T10:48:56.522Z,12.50
2022-11-17T10:51:25.080Z,11.59
2022-11-17T10:54:02.263Z,12.52
2022-11-17T10:56:30.490Z,12.51
2022-11-17T10:59:02.343Z,12.20
2022-11-17T11:01:31.395Z,12.56
2022-11-17T11:03:59.453Z,12.51
2022-11-17T11:06:27.916Z,12.46
2022-11-17T11:08:58.242Z,12.45
2022-11-17T11:11:43.495Z,12.59
2022-11-17T11:14:19.039Z,12.66
2022-11-17T11:16:48.507Z,12.61
2022-11-17T11:19:18.113Z,12.56
2022-11-17T11:22:20.787Z,12.61
2022-11-17T11:24:54.749Z,12.70
2022-11-17T11:27:37.581Z,12.57
2022-11-17T11:30:08.944Z,12.66
2022-11-17T11:32:46.405Z,12.62
2022-11-17T11:35:44.367Z,12.69
2022-11-17T11:38:29.391Z,12.72
2022-11-17T11:41:10.581Z,12.74
2022-11-17T11:43:44.462Z,12.71
2022-11-17T11:46:17.224Z,12.55
2022-11-17T11:48:46.921Z,12.81
2022-11-17T11:51:19.077Z,12.77
2022-11-17T11:53:51.819Z,12.91
2022-11-17T11:56:24.729Z,12.92
2022-11-17T11:58:59.053Z,12.82
2022-11-17T12:01:28.567Z,12.99
2022-11-17T12:04:05.951Z,12.79
2022-11-17T12:06:41.756Z,12.89
2022-11-17T12:09:34.708Z,13.04
2022-11-17T12:12:08.300Z,13.05
2022-11-17T12:14:36.632Z,13.05
2022-11-17T12:17:06.800Z,13.02
2022-11-17T12:19:54.869Z,12.89
2022-11-17T12:22:47.494Z,13.09
2022-11-17T12:25:18.210Z,13.10
2022-11-17T12:27:47.717Z,13.08
2022-11-17T12:30:50.507Z,13.19
2022-11-17T12:33:17.079Z,13.07
2022-11-17T12:35:43.606Z,13.26
2022-11-17T12:38:39.602Z,13.14
2022-11-17T12:41:06.198Z,13.15
2022-11-17T12:43:32.727Z,13.13
2022-11-17T12:46:11.393Z,13.23
2022-11-17T12:48:39.445Z,13.13
2022-11-17T12:51:15.124Z,13.03
2022-11-17T12:53:56.123Z,13.04
2022-11-17T12:56:38.098Z,13.05
2022-11-17T12:59:26.007Z,13.36
2022-11-17T13:01:59.188Z,13.39
2022-11-17T13:04:34.755Z,13.63
2022-11-17T13:07:02.993Z,13.71
2022-11-17T13:09:32.636Z,13.81
2022-11-17T13:12:00.585Z,13.86
2022-11-17T13:14:27.246Z,14.02
2022-11-17T13:16:53.872Z,14.16
2022-11-17T13:19:33.213Z,14.21
2022-11-17T13:22:01.475Z,14.32
2022-11-17T13:24:32.411Z,14.52
2022-11-17T13:27:00.334Z,14.57
2022-11-17T13:29:26.874Z,14.85
2022-11-17T13:32:12.414Z,14.97
2022-11-17T13:34:45.901Z,15.19
2022-11-17T13:37:16.633Z,15.37
2022-11-17T13:39:59.585Z,15.43
2022-11-17T13:42:29.763Z,15.28
2022-11-17T13:44:58.784Z,15.11
2022-11-17T13:47:41.802Z,14.94
2022-11-17T13:50:22.297Z,14.99
2022-11-17T13:52:54.291Z,15.07
2022-11-17T13:55:23.741Z,15.21
2022-11-17T13:57:55.677Z,15.16
2022-11-17T14:00:22.719Z,15.03
2022-11-17T14:02:52.818Z,15.08
2022-11-17T14:05:22.620Z,14.79
2022-11-17T14:07:49.890Z,14.76
2022-11-17T14:10:29.383Z,14.69
2022-11-17T14:13:19.120Z,14.78
2022-11-17T14:15:53.658Z,14.55
2022-11-17T14:18:35.728Z,14.62
2022-11-17T14:21:05.712Z,14.45
2022-11-17T14:23:32.214Z,14.43
2022-11-17T14:26:00.101Z,14.22
2022-11-17T14:28:26.680Z,14.11
2022-11-17T14:30:54.735Z,13.85
2022-11-17T14:33:21.912Z,13.74
2022-11-17T14:35:52.317Z,13.52
2022-11-17T14:38:21.819Z,13.54
2022-11-17T14:40:49.568Z,13.43
2022-11-17T14:43:17.712Z,13.38
2022-11-17T14:45:44.403Z,13.30
2022-11-17T14:48:18.705Z,13.16
2022-11-17T14:50:45.855Z,13.34
2022-11-17T14:53:12.363Z,13.42
2022-11-17T14:55:38.946Z,13.48
2022-11-17T14:58:05.482Z,13.43
2022-11-17T15:00:33.423Z,13.59
2022-11-17T15:02:59.954Z,13.61
2022-11-17T15:05:26.601Z,13.63
2022-11-17T15:07:53.097Z,13.54
2022-11-17T15:10:19.885Z,13.41
2022-11-17T15:12:46.446Z,13.36
2022-11-17T15:15:13.168Z,13.26
2022-11-17T15:17:41.079Z,13.37
2022-11-17T15:20:08.905Z,13.27
2022-11-17T15:22:35.565Z,13.11
2022-11-17T15:25:02.163Z,13.10
2022-11-17T15:27:28.705Z,13.15
2022-11-17T15:29:55.264Z,12.88
2022-11-17T15:32:21.801Z,13.02
2022-11-17T15:34:49.888Z,12.91
2022-11-17T15:37:16.432Z,11.92
2022-11-17T15:39:45.988Z,12.60
2022-11-17T15:42:12.813Z,12.58
2022-11-17T15:44:39.391Z,12.66
2022-11-17T15:47:05.964Z,12.64
2022-11-17T15:49:32.517Z,12.54
2022-11-17T15:52:00.375Z,12.49
2022-11-17T15:54:26.939Z,12.40
2022-11-17T15:56:53.522Z,12.31
2022-11-17T15:59:20.482Z,12.26
2022-11-17T16:01:47.516Z,12.14
2022-11-17T16:04:15.264Z,12.23
2022-11-17T16:06:44.101Z,11.93
2022-11-17T16:09:13.404Z,12.05
2022-11-17T16:11:40.682Z,11.86
2022-11-17T16:14:07.429Z,12.01
2022-11-17T16:16:35.766Z,11.81
2022-11-17T16:19:02.707Z,11.90
2022-11-17T16:21:29.304Z,11.77
2022-11-17T16:23:57.412Z,11.67
2022-11-17T16:26:27.002Z,11.16
2022-11-17T16:28:56.340Z,11.60
2022-11-17T16:31:24.757Z,11.00
2022-11-17T16:33:53.247Z,11.43
2022-11-17T16:36:22.453Z,11.09
2022-11-17T16:39:00.436Z,11.22
2022-11-17T16:41:32.615Z,11.00
2022-11-17T16:43:59.647Z,11.03
2022-11-17T16:46:27.903Z,10.90
2022-11-17T16:48:55.208Z,10.89
2022-11-17T16:51:22.404Z,10.86
2022-11-17T16:53:55.425Z,10.79
2022-11-17T16:56:22.458Z,10.72
2022-11-17T16:58:50.939Z,10.49
2022-11-17T17:01:19.955Z,10.60
2022-11-17T17:03:46.498Z,10.54
2022-11-17T17:06:15.309Z,10.49
2022-11-17T17:08:41.913Z,10.49
2022-11-17T17:11:10.192Z,10.25
2022-11-17T17:13:37.279Z,10.36
2022-11-17T17:16:07.736Z,10.08
2022-11-17T17:18:34.882Z,10.10
2022-11-17T17:21:01.949Z,10.27
2022-11-17T17:23:28.860Z,9.95
2022-11-17T17:26:03.275Z,10.21
2022-11-17T17:28:31.377Z,10.27
2022-11-17T17:30:57.969Z,10.25
2022-11-17T17:33:25.968Z,10.28
2022-11-17T17:35:52.591Z,10.18
2022-11-17T17:38:19.217Z,10.10
2022-11-17T17:40:45.754Z,10.05
2022-11-17T17:43:12.360Z,9.91
2022-11-17T17:45:38.930Z,9.96
2022-11-17T17:48:05.891Z,9.54
2022-11-17T17:50:33.802Z,9.92
2022-11-17T17:53:00.537Z,9.92
2022-11-17T17:55:27.194Z,9.92
2022-11-17T17:57:53.823Z,9.88
2022-11-17T18:00:20.742Z,9.54
2022-11-17T18:02:47.356Z,9.86
2022-11-17T18:05:14.001Z,9.76
2022-11-17T18:07:42.051Z,9.92
2022-11-17T18:10:09.173Z,9.91
2022-11-17T18:12:35.826Z,9.90
2022-11-17T18:15:02.370Z,9.90
2022-11-17T18:17:29.039Z,9.89
2022-11-17T18:19:55.607Z,9.79
2022-11-17T18:22:22.205Z,9.91
2022-11-17T18:24:50.070Z,9.84
2022-11-17T18:27:16.773Z,9.96
2022-11-17T18:29:43.324Z,9.98
2022-11-17T18:32:09.984Z,10.00
2022-11-17T18:34:36.589Z,9.91
2022-11-17T18:37:03.944Z,9.96
2022-11-17T18:39:30.499Z,9.97
2022-11-17T18:41:58.454Z,9.97
2022-11-17T18:44:25.005Z,9.98
2022-11-17T18:46:51.669Z,9.96
2022-11-17T18:49:18.606Z,9.94
2022-11-17T18:51:45.670Z,9.80
2022-11-17T18:54:12.297Z,9.95
2022-11-17T18:56:39.223Z,9.72
2022-11-17T18:59:07.571Z,9.78
2022-11-17T19:01:34.282Z,9.97
2022-11-17T19:04:00.857Z,9.97
2022-11-17T19:06:27.885Z,9.68
2022-11-17T19:08:54.665Z,9.78
2022-11-17T19:11:22.943Z,9.69
2022-11-17T19:13:49.911Z,9.55
2022-11-17T19:16:20.494Z,9.59
2022-11-17T19:18:48.805Z,9.56
2022-11-17T19:21:16.952Z,9.47
2022-11-17T19:23:50.784Z,9.45
2022-11-17T19:26:20.211Z,9.21
2022-11-17T19:28:46.883Z,9.25
2022-11-17T19:31:17.385Z,9.12
2022-11-17T19:33:46.870Z,9.15
2022-11-17T19:36:15.593Z,9.11
2022-11-17T19:38:42.378Z,8.73
2022-11-17T19:41:10.575Z,8.99
2022-11-17T19:43:43.413Z,8.95
2022-11-17T19:46:13.404Z,8.79
2022-11-17T19:48:40.793Z,8.77
2022-11-17T19:51:17.629Z,8.83
2022-11-17T19:53:44.353Z,8.69
2022-11-17T19:56:11.060Z,8.38
2022-11-17T19:58:37.972Z,8.76
2022-11-17T20:01:09.158Z,8.70
2022-11-17T20:03:36.765Z,8.47
2022-11-17T20:06:03.994Z,8.45
2022-11-17T20:08:32.308Z,8.46
2022-11-17T20:11:03.483Z,8.39
2022-11-17T20:13:30.282Z,8.25
2022-11-17T20:15:57.118Z,8.31
2022-11-17T20:18:23.800Z,8.20
2022-11-17T20:20:50.615Z,8.25
2022-11-17T20:23:17.215Z,8.16
2022-11-17T20:25:45.453Z,8.00
2022-11-17T20:28:12.112Z,8.08
2022-11-17T20:30:38.956Z,8.13
2022-11-17T20:33:06.193Z,8.11
2022-11-17T20:35:32.906Z,8.12
2022-11-17T20:37:59.568Z,8.13
2022-11-17T20:40:26.065Z,8.15
2022-11-17T20:42:54.409Z,8.04
2022-11-17T20:45:21.047Z,8.19
2022-11-17T20:47:47.692Z,7.76
2022-11-17T20:50:14.328Z,8.24
2022-11-17T20:52:40.933Z,8.27
2022-11-17T20:55:08.332Z,8.29
2022-11-17T20:57:34.978Z,8.33
2022-11-17T21:00:03.221Z,8.35
2022-11-17T21:02:29.785Z,8.18
2022-11-17T21:04:56.313Z,7.96
2022-11-17T21:07:22.989Z,8.46
2022-11-17T21:09:49.619Z,8.46
2022-11-17T21:12:16.202Z,8.30
2022-11-17T21:14:42.752Z,8.47
2022-11-17T21:17:10.863Z,8.41
2022-11-17T21:19:39.172Z,8.58
2022-11-17T21:22:05.913Z,8.27
2022-11-17T21:24:32.425Z,8.57
2022-11-17T21:26:59.154Z,8.57
2022-11-17T21:29:25.677Z,8.59
2022-11-17T21:31:52.201Z,8.58
2022-11-17T21:34:20.158Z,8.59
2022-11-17T21:36:46.743Z,8.44
2022-11-17T21:39:13.338Z,8.68
2022-11-17T21:41:40.142Z,8.62
2022-11-17T21:44:06.672Z,8.65
2022-11-17T21:46:34.191Z,8.69
2022-11-17T21:49:01.282Z,8.63
2022-11-17T21:51:30.745Z,8.56
2022-11-17T21:53:59.169Z,8.52
2022-11-17T21:56:27.105Z,8.49
2022-11-17T21:58:54.496Z,8.42
2022-11-17T22:01:21.244Z,8.36
2022-11-17T22:03:47.806Z,8.32
2022-11-17T22:06:16.018Z,8.12
2022-11-17T22:08:44.825Z,8.09
2022-11-17T22:11:12.877Z,8.21
2022-11-17T22:13:40.145Z,8.18
2022-11-17T22:16:09.622Z,8.10
2022-11-17T22:18:36.291Z,8.06
2022-11-17T22:21:03.517Z,8.16
2022-11-17T22:23:30.471Z,8.10
2022-11-17T22:26:00.424Z,7.87
2022-11-17T22:28:27.413Z,8.02
2022-11-17T22:30:54.461Z,7.98
2022-11-17T22:33:22.116Z,7.91
2022-11-17T22:35:48.931Z,7.88
2022-11-17T22:38:16.007Z,7.70
2022-11-17T22:40:43.161Z,7.76
2022-11-17T22:43:15.273Z,7.60
2022-11-17T22:45:42.459Z,7.63
2022-11-17T22:48:09.441Z,7.27
2022-11-17T22:50:36.460Z,7.59
2022-11-17T22:53:03.091Z,7.19
2022-11-17T22:55:30.320Z,7.50
2022-11-17T22:57:56.843Z,7.30
2022-11-17T23:00:24.813Z,7.43
2022-11-17T23:02:51.371Z,7.38
2022-11-17T23:05:18.316Z,7.05
2022-11-17T23:07:44.929Z,6.94
2022-11-17T23:10:12.033Z,7.27
2022-11-17T23:12:40.483Z,7.20
2022-11-17T23:15:08.531Z,7.16
2022-11-17T23:17:36.501Z,7.10
2022-11-17T23:20:03.452Z,7.05
2022-11-17T23:22:29.986Z,7.03
2022-11-17T23:24:56.592Z,6.86
2022-11-17T23:27:23.146Z,6.84
2022-11-17T23:29:49.715Z,6.97
2022-11-17T23:32:16.230Z,6.93
2022-11-17T23:34:44.168Z,6.94
2022-11-17T23:37:10.901Z,6.94
2022-11-17T23:39:37.776Z,6.94
2022-11-17T23:42:05.048Z,6.97
2022-11-17T23:44:31.689Z,7.00
2022-11-17T23:46:58.262Z,6.95
2022-11-17T23:49:25.218Z,6.82
2022-11-17T23:51:53.077Z,7.01
2022-11-17T23:54:19.751Z,6.82
2022-11-17T23:56:46.303Z,7.04
2022-11-17T23:59:12.988Z,6.91
